createdAt,value
2023-04-02T00:00:58.990Z,0.90
2023-04-02T00:03:26.175Z,1.10
2023-04-02T00:05:55.763Z,1.10
2023-04-02T00:08:24.780Z,1.10
2023-04-02T00:10:53.657Z,0.90
2023-04-02T00:13:24.569Z,1.08
2023-04-02T00:15:52.759Z,0.98
2023-04-02T00:18:22.032Z,1.00
2023-04-02T00:20:54.703Z,0.73
2023-04-02T00:23:22.768Z,0.80
2023-04-02T00:25:49.938Z,0.80
2023-04-02T00:28:18.678Z,0.70
2023-04-02T00:30:48.733Z,0.95
2023-04-02T00:33:34.128Z,0.82
2023-04-02T00:36:01.395Z,0.77
2023-04-02T00:38:30.764Z,0.80
2023-04-02T00:40:59.763Z,0.65
2023-04-02T00:43:27.989Z,0.70
2023-04-02T00:45:56.756Z,0.60
2023-04-02T00:48:33.008Z,0.90
2023-04-02T00:51:29.458Z,0.80
2023-04-02T00:53:58.642Z,0.80
2023-04-02T00:56:28.009Z,1.00
2023-04-02T00:58:56.269Z,0.90
2023-04-02T01:01:25.576Z,0.70
2023-04-02T01:03:58.298Z,1.00
2023-04-02T01:08:55.758Z,0.60
2023-04-02T01:11:23.351Z,0.73
2023-04-02T01:14:02.922Z,0.80
2023-04-02T01:16:36.886Z,0.50
2023-04-02T01:19:03.960Z,0.80
2023-04-02T01:21:54.074Z,0.70
2023-04-02T01:24:21.700Z,0.80
2023-04-02T01:26:52.561Z,0.60
2023-04-02T01:29:19.748Z,0.68
2023-04-02T01:31:47.689Z,0.50
2023-04-02T01:34:17.304Z,0.77
2023-04-02T01:37:05.245Z,0.50
2023-04-02T01:39:35.356Z,0.70
2023-04-02T01:42:11.741Z,0.57
2023-04-02T01:44:47.437Z,0.73
2023-04-02T01:47:16.237Z,0.50
2023-04-02T01:49:44.059Z,0.82
2023-04-02T01:52:17.216Z,0.68
2023-04-02T01:54:44.872Z,0.70
2023-04-02T01:57:13.056Z,0.73
2023-04-02T01:59:40.653Z,0.70
2023-04-02T02:02:10.429Z,0.60
2023-04-02T02:04:37.568Z,0.68
2023-04-02T02:07:04.927Z,0.70
2023-04-02T02:09:35.377Z,0.80
2023-04-02T02:12:03.324Z,0.63
2023-04-02T02:14:31.482Z,0.90
2023-04-02T02:17:02.854Z,0.70
2023-04-02T02:19:32.819Z,0.70
2023-04-02T02:22:08.442Z,0.60
2023-04-02T02:24:37.081Z,0.80
2023-04-02T02:27:22.766Z,0.80
2023-04-02T02:30:03.066Z,0.57
2023-04-02T02:32:31.312Z,0.80
2023-04-02T02:35:04.696Z,0.77
2023-04-02T02:37:36.207Z,0.80
2023-04-02T02:40:06.457Z,0.80
2023-04-02T02:42:37.411Z,0.75
2023-04-02T02:45:07.487Z,0.90
2023-04-02T02:47:36.385Z,1.13
2023-04-02T02:50:05.102Z,1.20
2023-04-02T02:52:33.244Z,1.00
2023-04-02T02:55:03.487Z,1.40
2023-04-02T02:57:32.682Z,0.90
2023-04-02T03:00:00.979Z,1.70
2023-04-02T03:02:29.099Z,1.60
2023-04-02T03:04:58.075Z,1.48
2023-04-02T03:07:26.906Z,1.52
2023-04-02T03:10:00.261Z,1.88
2023-04-02T03:12:37.023Z,1.80
2023-04-02T03:15:08.799Z,1.42
2023-04-02T03:17:39.227Z,1.10
2023-04-02T03:20:12.384Z,1.20
2023-04-02T03:22:42.636Z,1.00
2023-04-02T03:25:15.840Z,0.93
2023-04-02T03:27:44.750Z,0.80
2023-04-02T03:30:14.650Z,1.10
2023-04-02T03:32:43.408Z,0.80
2023-04-02T03:35:23.099Z,0.80
2023-04-02T03:38:01.279Z,1.05
2023-04-02T03:40:48.644Z,0.75
2023-04-02T03:43:20.607Z,1.25
2023-04-02T03:45:50.484Z,0.80
2023-04-02T03:48:25.800Z,0.90
2023-04-02T03:51:00.842Z,0.98
2023-04-02T03:53:29.734Z,0.80
2023-04-02T03:55:57.866Z,0.80
2023-04-02T03:58:32.786Z,0.90
2023-04-02T04:01:17.886Z,0.98
2023-04-02T04:03:51.137Z,1.00
2023-04-02T04:06:21.462Z,0.77
2023-04-02T04:08:54.666Z,0.88
2023-04-02T04:11:27.167Z,0.85
2023-04-02T04:14:13.181Z,0.90
2023-04-02T04:16:53.704Z,0.88
2023-04-02T04:19:55.027Z,0.80
2023-04-02T04:22:33.944Z,0.80
2023-04-02T04:25:02.538Z,0.70
2023-04-02T04:27:37.560Z,0.77
2023-04-02T04:30:06.585Z,1.08
2023-04-02T04:32:50.406Z,0.98
2023-04-02T04:35:21.738Z,1.40
2023-04-02T04:37:49.700Z,1.30
2023-04-02T04:40:22.851Z,1.17
2023-04-02T04:42:51.534Z,0.80
2023-04-02T04:45:24.843Z,1.00
2023-04-02T04:47:57.573Z,1.00
2023-04-02T04:52:51.771Z,1.05
2023-04-02T04:55:51.309Z,1.15
2023-04-02T04:58:37.167Z,1.30
2023-04-02T05:01:25.800Z,1.40
2023-04-02T05:04:16.344Z,1.30
2023-04-02T05:06:45.528Z,1.00
2023-04-02T05:09:23.143Z,1.02
2023-04-02T05:12:02.955Z,1.13
2023-04-02T05:14:39.201Z,0.95
2023-04-02T05:17:10.247Z,1.10
2023-04-02T05:19:41.393Z,1.20
2023-04-02T05:22:32.247Z,1.70
2023-04-02T05:25:12.879Z,1.83
2023-04-02T05:27:40.018Z,2.00
2023-04-02T05:30:13.059Z,1.60
2023-04-02T05:32:48.286Z,1.25
2023-04-02T05:35:16.560Z,2.78
2023-04-02T05:37:43.919Z,1.45
2023-04-02T05:40:15.686Z,1.40
2023-04-02T05:42:45.967Z,2.30
2023-04-02T05:45:27.819Z,1.73
2023-04-02T05:48:01.816Z,1.60
2023-04-02T05:50:37.607Z,1.30
2023-04-02T05:53:08.965Z,1.50
2023-04-02T05:55:39.046Z,1.60
2023-04-02T05:58:32.042Z,2.10
2023-04-02T06:01:01.536Z,2.20
2023-04-02T06:03:55.412Z,1.80
2023-04-02T06:06:28.613Z,2.08
2023-04-02T06:09:00.926Z,2.28
2023-04-02T06:11:31.633Z,3.28
2023-04-02T06:13:58.942Z,4.00
2023-04-02T06:16:27.422Z,3.67
2023-04-02T06:18:56.070Z,3.72
2023-04-02T06:21:23.248Z,3.70
2023-04-02T06:23:57.486Z,3.70
2023-04-02T06:26:31.364Z,4.38
2023-04-02T06:29:12.715Z,5.30
2023-04-02T06:31:43.904Z,4.00
2023-04-02T06:34:21.778Z,2.50
2023-04-02T06:36:49.717Z,2.53
2023-04-02T06:39:22.820Z,7.88
2023-04-02T06:42:01.682Z,7.35
2023-04-02T06:44:32.239Z,2.33
2023-04-02T06:47:00.766Z,2.33
2023-04-02T06:49:35.297Z,2.40
2023-04-02T06:52:04.350Z,1.80
2023-04-02T06:54:31.799Z,1.52
2023-04-02T06:56:59.124Z,1.75
2023-04-02T06:59:26.833Z,1.88
2023-04-02T07:01:54.074Z,1.98
2023-04-02T07:04:21.909Z,1.40
2023-04-02T07:06:49.123Z,1.42
2023-04-02T07:09:16.260Z,1.35
2023-04-02T07:11:43.573Z,1.63
2023-04-02T07:14:14.038Z,1.48
2023-04-02T07:16:42.020Z,1.85
2023-04-02T07:19:15.694Z,2.20
2023-04-02T07:21:42.841Z,2.88
2023-04-02T07:24:09.904Z,1.90
2023-04-02T07:26:37.280Z,1.48
2023-04-02T07:29:07.346Z,1.40
2023-04-02T07:31:34.576Z,1.50
2023-04-02T07:34:01.829Z,1.50
2023-04-02T07:36:29.682Z,1.48
2023-04-02T07:38:57.217Z,1.73
2023-04-02T07:41:24.382Z,1.83
2023-04-02T07:43:51.458Z,1.67
2023-04-02T07:46:20.120Z,1.77
2023-04-02T07:48:47.863Z,1.90
2023-04-02T07:51:19.641Z,2.00
2023-04-02T07:53:50.231Z,2.10
2023-04-02T07:56:19.055Z,1.92
2023-04-02T07:58:46.612Z,2.13
2023-04-02T08:01:21.527Z,2.20
2023-04-02T08:03:49.599Z,2.10
2023-04-02T08:06:17.891Z,2.40
2023-04-02T08:08:45.019Z,1.70
2023-04-02T08:11:12.446Z,1.80
2023-04-02T08:13:39.793Z,1.40
2023-04-02T08:16:07.867Z,1.50
2023-04-02T08:18:35.328Z,1.38
2023-04-02T08:21:02.444Z,1.55
2023-04-02T08:23:33.530Z,1.60
2023-04-02T08:26:01.194Z,1.40
2023-04-02T08:28:28.391Z,1.50
2023-04-02T08:30:55.639Z,2.35
2023-04-02T08:33:22.825Z,2.92
2023-04-02T08:35:50.724Z,2.85
2023-04-02T08:38:18.839Z,1.70
2023-04-02T08:40:46.876Z,1.75
2023-04-02T08:43:32.953Z,1.65
2023-04-02T08:46:20.342Z,1.70
2023-04-02T08:48:50.881Z,1.27
2023-04-02T08:51:25.683Z,1.50
2023-04-02T08:53:54.585Z,1.10
2023-04-02T08:56:27.919Z,1.30
2023-04-02T08:58:57.066Z,1.73
2023-04-02T09:01:51.761Z,3.05
2023-04-02T09:04:21.177Z,2.17
2023-04-02T09:06:49.004Z,1.75
2023-04-02T09:09:17.181Z,1.42
2023-04-02T09:11:47.794Z,1.00
2023-04-02T09:14:18.474Z,1.80
2023-04-02T09:16:47.285Z,1.25
2023-04-02T09:19:20.658Z,1.70
2023-04-02T09:21:59.003Z,1.23
2023-04-02T09:24:26.154Z,1.60
2023-04-02T09:26:53.318Z,1.98
2023-04-02T09:29:27.027Z,1.30
2023-04-02T09:32:07.477Z,0.85
2023-04-02T09:34:36.087Z,0.90
2023-04-02T09:37:08.332Z,0.73
2023-04-02T09:39:35.702Z,0.85
2023-04-02T09:42:06.487Z,0.70
2023-04-02T09:44:33.841Z,0.73
2023-04-02T09:47:05.330Z,0.73
2023-04-02T09:49:36.718Z,0.50
2023-04-02T09:52:22.648Z,1.10
2023-04-02T09:55:11.848Z,1.23
2023-04-02T09:57:38.959Z,5.40
2023-04-02T10:00:25.271Z,0.70
2023-04-02T10:03:17.922Z,0.90
2023-04-02T10:05:45.401Z,0.70
2023-04-02T10:08:20.435Z,1.38
2023-04-02T10:10:50.389Z,0.90
2023-04-02T10:13:20.513Z,0.95
2023-04-02T10:15:53.529Z,0.80
2023-04-02T10:18:23.480Z,0.70
2023-04-02T10:20:51.886Z,0.68
2023-04-02T10:23:19.862Z,1.50
2023-04-02T10:25:50.348Z,1.85
2023-04-02T10:28:30.824Z,10.50
2023-04-02T10:31:04.398Z,2.35
2023-04-02T10:33:34.282Z,1.00
2023-04-02T10:36:07.820Z,1.70
2023-04-02T10:38:48.268Z,1.10
2023-04-02T10:41:27.559Z,0.90
2023-04-02T10:44:12.631Z,1.50
2023-04-02T10:47:10.931Z,2.13
2023-04-02T10:49:42.738Z,1.95
2023-04-02T10:52:15.811Z,1.43
2023-04-02T10:54:48.811Z,1.13
2023-04-02T10:57:27.480Z,1.10
2023-04-02T11:00:00.736Z,1.00
2023-04-02T11:02:37.562Z,0.75
2023-04-02T11:05:12.198Z,0.70
2023-04-02T11:07:46.691Z,11.02
2023-04-02T11:10:16.145Z,1.95
2023-04-02T11:13:12.750Z,1.20
2023-04-02T11:15:40.413Z,0.55
2023-04-02T11:18:12.509Z,0.80
2023-04-02T11:20:44.019Z,0.95
2023-04-02T11:23:12.932Z,0.98
2023-04-02T11:25:41.439Z,0.85
2023-04-02T11:28:14.484Z,0.80
2023-04-02T11:30:42.673Z,1.00
2023-04-02T11:33:36.589Z,0.80
2023-04-02T11:36:25.795Z,1.05
2023-04-02T11:38:54.875Z,1.33
2023-04-02T11:41:49.444Z,1.65
2023-04-02T11:44:24.177Z,0.85
2023-04-02T11:46:51.853Z,1.25
2023-04-02T11:49:39.742Z,1.52
2023-04-02T11:52:20.743Z,1.00
2023-04-02T11:54:55.428Z,0.70
2023-04-02T11:57:38.138Z,0.70
2023-04-02T12:00:18.389Z,0.73
2023-04-02T12:03:11.824Z,0.60
2023-04-02T12:05:43.426Z,0.77
2023-04-02T12:08:22.735Z,0.60
2023-04-02T12:10:50.270Z,0.70
2023-04-02T12:13:37.630Z,1.30
2023-04-02T12:16:04.840Z,2.10
2023-04-02T12:18:32.129Z,2.10
2023-04-02T12:20:59.470Z,0.70
2023-04-02T12:23:37.628Z,1.20
2023-04-02T12:26:09.242Z,1.80
2023-04-02T12:28:38.175Z,2.63
2023-04-02T12:31:12.761Z,1.15
2023-04-02T12:33:40.568Z,0.80
2023-04-02T12:36:10.046Z,0.80
2023-04-02T12:38:44.428Z,0.80
2023-04-02T12:41:27.468Z,0.60
2023-04-02T12:46:24.366Z,0.73
2023-04-02T12:48:51.524Z,0.98
2023-04-02T12:51:18.675Z,0.70
2023-04-02T12:53:50.346Z,0.90
2023-04-02T12:56:22.232Z,1.00
2023-04-02T12:58:56.683Z,0.80
2023-04-02T13:01:27.604Z,0.55
2023-04-02T13:04:08.548Z,1.00
2023-04-02T13:06:36.428Z,1.70
2023-04-02T13:09:05.182Z,1.15
2023-04-02T13:11:50.372Z,0.85
2023-04-02T13:14:19.847Z,0.88
2023-04-02T13:16:47.099Z,0.93
2023-04-02T13:19:20.490Z,0.90
2023-04-02T13:21:47.644Z,1.05
2023-04-02T13:24:21.720Z,1.13
2023-04-02T13:26:49.730Z,1.38
2023-04-02T13:29:36.107Z,1.25
2023-04-02T13:32:04.716Z,1.23
2023-04-02T13:34:31.880Z,2.13
2023-04-02T13:36:59.811Z,1.70
2023-04-02T13:39:27.185Z,1.90
2023-04-02T13:41:57.373Z,1.70
2023-04-02T13:44:25.861Z,3.83
2023-04-02T13:46:53.587Z,3.95
2023-04-02T13:49:21.575Z,1.75
2023-04-02T13:51:50.566Z,1.73
2023-04-02T13:54:34.959Z,2.50
2023-04-02T13:57:02.373Z,2.00
2023-04-02T13:59:29.599Z,2.05
2023-04-02T14:01:59.317Z,3.28
2023-04-02T14:04:28.185Z,3.35
2023-04-02T14:06:55.319Z,3.28
2023-04-02T14:09:41.037Z,3.40
2023-04-02T14:12:08.175Z,3.67
2023-04-02T14:14:47.187Z,2.85
2023-04-02T14:17:19.329Z,3.55
2023-04-02T14:19:46.485Z,3.72
2023-04-02T14:22:19.164Z,3.97
2023-04-02T14:25:06.278Z,4.03
2023-04-02T14:27:40.501Z,4.03
2023-04-02T14:30:17.101Z,3.38
2023-04-02T14:32:53.400Z,4.20
2023-04-02T14:35:26.463Z,4.45
2023-04-02T14:38:02.483Z,2.95
2023-04-02T14:40:52.266Z,3.75
2023-04-02T14:43:31.933Z,3.78
2023-04-02T14:46:00.995Z,3.03
2023-04-02T14:48:54.387Z,2.97
2023-04-02T14:51:27.430Z,2.90
2023-04-02T14:54:15.983Z,3.50
2023-04-02T14:56:48.236Z,2.47
2023-04-02T14:59:24.191Z,2.75
2023-04-02T15:01:52.798Z,2.88
2023-04-02T15:04:27.763Z,2.72
2023-04-02T15:06:57.774Z,2.70
2023-04-02T15:09:28.184Z,3.10
2023-04-02T15:12:04.697Z,2.47
2023-04-02T15:14:37.623Z,2.65
2023-04-02T15:17:04.780Z,2.80
2023-04-02T15:19:31.893Z,2.90
2023-04-02T15:22:09.467Z,2.30
2023-04-02T15:24:49.112Z,2.90
2023-04-02T15:27:25.530Z,2.55
2023-04-02T15:29:55.848Z,2.90
2023-04-02T15:32:28.998Z,2.88
2023-04-02T15:35:14.866Z,3.30
2023-04-02T15:37:41.980Z,3.00
2023-04-02T15:40:20.985Z,2.63
2023-04-02T15:42:54.724Z,2.30
2023-04-02T15:45:42.771Z,2.03
2023-04-02T15:48:18.209Z,2.05
2023-04-02T15:50:51.336Z,2.80
2023-04-02T15:53:30.478Z,3.30
2023-04-02T15:56:16.652Z,3.05
2023-04-02T15:59:08.448Z,3.35
2023-04-02T16:01:41.647Z,3.30
2023-04-02T16:04:41.515Z,3.30
2023-04-02T16:07:09.189Z,3.22
2023-04-02T16:09:45.775Z,3.30
2023-04-02T16:12:16.452Z,3.50
2023-04-02T16:14:45.586Z,3.35
2023-04-02T16:17:24.232Z,3.28
2023-04-02T16:19:53.688Z,3.58
2023-04-02T16:22:27.037Z,3.15
2023-04-02T16:24:58.516Z,3.40
2023-04-02T16:27:43.127Z,3.38
2023-04-02T16:30:27.254Z,3.15
2023-04-02T16:32:57.274Z,2.70
2023-04-02T16:35:41.642Z,2.42
2023-04-02T16:38:15.232Z,12.38
2023-04-02T16:40:57.117Z,3.33
2023-04-02T16:43:35.641Z,3.65
2023-04-02T16:46:11.672Z,2.75
2023-04-02T16:48:45.270Z,3.45
2023-04-02T16:51:15.659Z,3.53
2023-04-02T16:54:01.064Z,3.90
2023-04-02T16:56:35.469Z,5.03
2023-04-02T16:59:08.682Z,5.47
2023-04-02T17:01:54.430Z,5.75
2023-04-02T17:04:45.200Z,5.63
2023-04-02T17:07:18.257Z,5.43
2023-04-02T17:09:51.501Z,5.93
2023-04-02T17:12:21.786Z,4.63
2023-04-02T17:14:53.092Z,5.28
2023-04-02T17:17:21.009Z,4.50
2023-04-02T17:19:51.000Z,5.05
2023-04-02T17:22:20.283Z,5.10
2023-04-02T17:25:06.003Z,5.03
2023-04-02T17:27:37.645Z,4.35
2023-04-02T17:30:15.424Z,4.65
2023-04-02T17:32:42.864Z,5.05
2023-04-02T17:35:13.081Z,5.32
2023-04-02T17:37:43.314Z,4.10
2023-04-02T17:40:22.143Z,4.55
2023-04-02T17:42:49.535Z,5.63
2023-04-02T17:45:19.492Z,5.78
2023-04-02T17:47:59.119Z,7.72
2023-04-02T17:50:52.671Z,5.75
2023-04-02T17:53:49.220Z,5.38
2023-04-02T17:56:35.691Z,6.45
2023-04-02T17:59:27.868Z,5.82
2023-04-02T18:02:02.895Z,6.15
2023-04-02T18:04:48.679Z,5.78
2023-04-02T18:07:31.251Z,6.10
2023-04-02T18:10:22.942Z,5.35
2023-04-02T18:12:52.930Z,7.07
2023-04-02T18:15:22.799Z,8.80
2023-04-02T18:17:54.787Z,5.00
2023-04-02T18:20:27.862Z,5.45
2023-04-02T18:23:06.628Z,5.57
2023-04-02T18:25:43.319Z,5.57
2023-04-02T18:28:10.519Z,5.82
2023-04-02T18:30:44.183Z,5.50
2023-04-02T18:33:30.175Z,4.57
2023-04-02T18:35:57.345Z,5.07
2023-04-02T18:38:30.026Z,3.17
2023-04-02T18:43:33.554Z,4.32
2023-04-02T18:46:19.678Z,4.05
2023-04-02T18:48:46.754Z,2.67
2023-04-02T18:51:19.629Z,3.50
2023-04-02T18:53:47.201Z,3.85
2023-04-02T18:56:16.739Z,3.90
2023-04-02T18:58:52.653Z,3.80
2023-04-02T19:01:38.511Z,4.05
2023-04-02T19:04:08.129Z,4.10
2023-04-02T19:06:40.398Z,4.47
2023-04-02T19:09:13.053Z,3.33
2023-04-02T19:11:40.171Z,3.85
2023-04-02T19:14:14.980Z,4.28
2023-04-02T19:16:49.627Z,4.15
2023-04-02T19:19:16.754Z,3.85
2023-04-02T19:21:53.384Z,3.47
2023-04-02T19:24:36.323Z,4.03
2023-04-02T19:27:16.157Z,3.38
2023-04-02T19:30:02.043Z,4.35
2023-04-02T19:32:47.837Z,4.55
2023-04-02T19:35:18.038Z,3.70
2023-04-02T19:38:14.430Z,4.07
2023-04-02T19:40:47.335Z,4.28
2023-04-02T19:43:14.507Z,4.22
2023-04-02T19:45:43.194Z,3.38
2023-04-02T19:48:18.586Z,3.92
2023-04-02T19:50:46.437Z,3.72
2023-04-02T19:53:14.183Z,3.15
2023-04-02T19:55:41.708Z,3.38
2023-04-02T19:58:19.603Z,3.53
2023-04-02T20:00:47.249Z,3.13
2023-04-02T20:03:14.409Z,3.13
2023-04-02T20:05:41.486Z,3.30
2023-04-02T20:08:08.566Z,2.70
2023-04-02T20:10:36.167Z,3.75
2023-04-02T20:13:03.500Z,3.65
2023-04-02T20:15:30.679Z,2.47
2023-04-02T20:17:57.947Z,3.08
2023-04-02T20:20:25.086Z,3.47
2023-04-02T20:22:52.246Z,3.40
2023-04-02T20:25:19.397Z,2.97
2023-04-02T20:27:46.678Z,3.30
2023-04-02T20:30:13.859Z,2.17
2023-04-02T20:32:41.359Z,3.30
2023-04-02T20:35:08.997Z,3.17
2023-04-02T20:37:36.167Z,3.08
2023-04-02T20:40:03.276Z,3.40
2023-04-02T20:42:30.441Z,3.50
2023-04-02T20:44:57.707Z,3.72
2023-04-02T20:47:24.903Z,3.92
2023-04-02T20:49:52.987Z,3.72
2023-04-02T20:52:20.175Z,3.95
2023-04-02T20:54:47.418Z,3.95
2023-04-02T20:57:14.556Z,2.65
2023-04-02T20:59:41.743Z,4.25
2023-04-02T21:02:10.272Z,3.88
2023-04-02T21:04:37.471Z,4.53
2023-04-02T21:07:04.619Z,4.47
2023-04-02T21:09:32.040Z,4.20
2023-04-02T21:11:59.232Z,4.07
2023-04-02T21:14:26.766Z,4.03
2023-04-02T21:16:53.874Z,3.85
2023-04-02T21:19:20.968Z,4.97
2023-04-02T21:21:48.148Z,4.30
2023-04-02T21:24:15.264Z,4.18
2023-04-02T21:26:42.475Z,3.88
2023-04-02T21:29:11.505Z,3.13
2023-04-02T21:31:39.477Z,2.90
2023-04-02T21:34:07.400Z,4.00
2023-04-02T21:36:38.529Z,4.22
2023-04-02T21:39:07.094Z,4.38
2023-04-02T21:41:35.791Z,4.13
2023-04-02T21:44:03.785Z,3.67
2023-04-02T21:46:31.897Z,4.03
2023-04-02T21:48:59.852Z,4.22
2023-04-02T21:51:28.387Z,3.83
2023-04-02T21:53:55.649Z,4.25
2023-04-02T21:56:24.318Z,3.85
2023-04-02T21:58:51.829Z,3.30
2023-04-02T22:01:26.732Z,3.53
2023-04-02T22:03:55.663Z,3.08
2023-04-02T22:06:23.508Z,3.03
2023-04-02T22:08:57.787Z,3.95
2023-04-02T22:11:26.503Z,4.47
2023-04-02T22:13:54.097Z,3.90
2023-04-02T22:16:22.492Z,3.03
2023-04-02T22:18:50.305Z,3.72
2023-04-02T22:21:18.315Z,3.38
2023-04-02T22:23:45.835Z,3.72
2023-04-02T22:26:13.965Z,2.88
2023-04-02T22:28:41.266Z,3.53
2023-04-02T22:31:10.206Z,3.97
2023-04-02T22:33:37.318Z,3.45
2023-04-02T22:36:05.111Z,4.03
2023-04-02T22:38:32.641Z,3.15
2023-04-02T22:41:10.372Z,3.95
2023-04-02T22:43:38.067Z,3.47
2023-04-02T22:46:06.173Z,3.92
2023-04-02T22:48:33.559Z,3.63
2023-04-02T22:51:00.911Z,3.10
2023-04-02T22:53:28.033Z,4.05
2023-04-02T22:55:55.232Z,3.50
2023-04-02T22:58:22.716Z,3.83
2023-04-02T23:00:49.818Z,3.63
2023-04-02T23:03:16.917Z,3.90
2023-04-02T23:05:47.000Z,3.38
2023-04-02T23:08:14.133Z,3.60
2023-04-02T23:10:41.250Z,3.85
2023-04-02T23:13:08.347Z,3.60
2023-04-02T23:15:35.772Z,3.55
2023-04-02T23:18:03.028Z,3.60
2023-04-02T23:20:30.196Z,2.88
2023-04-02T23:22:57.280Z,2.55
2023-04-02T23:25:24.343Z,3.83
2023-04-02T23:27:51.456Z,3.20
2023-04-02T23:30:18.651Z,3.78
2023-04-02T23:32:45.823Z,3.60
2023-04-02T23:35:13.037Z,4.10
2023-04-02T23:37:41.930Z,3.97
2023-04-02T23:40:09.497Z,4.70
2023-04-02T23:42:36.632Z,4.00
2023-04-02T23:45:03.808Z,4.05
2023-04-02T23:47:31.090Z,4.32
2023-04-02T23:49:58.283Z,4.05
2023-04-02T23:52:25.656Z,4.63
2023-04-02T23:54:52.788Z,4.97
2023-04-02T23:57:19.967Z,6.05
2023-04-02T23:59:47.224Z,4.18
